Pagrindinis puslapis
METAR-TAF:

METAR-TAF

Oro uostai :

Čumphonas, Tailandas

platuma: 10-42-40N, ilguma: 099-21-42E, Aukštis: 5 m

Dabartinis oras

Ataskaita buvo paskelbta 1 valandą ir 8 minutes, ne 04:00 UTC
Vėjas 7 kt iš Pietų/Pietryčių, svyruoja nuo Rytų/Pietryčių ir Pietų
Temperatūra 30°C
Drėgmė 70%
Slėgis 1012 hPa
Matomumas 10 km arba daugiau
Su prošvaistėmis ne aukštis 2000 ft

METAR: VTSE 290400Z 15007KT 110V180 9999 BKN020 30/24 Q1012 NOSIG

Laikas: 12:08 (05:08 UTC)

Prognozė

Ataskaita buvo paskelbta 6 valandos ir 8 minutes, ne 23:00 UTC
Prognozė galioja nuo 29 metu 00 UTC su 29 metu 24 UTC
Vėjas 8 kt iš Pietryčių
Matomumas 10 km arba daugiau
Mažai debesys ne aukštis 2000 ft

TAF: VTSE 282300Z 2900/2924 13008KT 9999 FEW020

Orai ataskaitas ir orų prognozės (METAR, TAF).

turimą stotys yra geltonos ir raudonos taškus žemėlapyje.

Perkelti pele per norėdami pamatyti stoties vardą.

Tada spustelėkite, norėdami matyti oro stebėjimo ir prognozės.

Norėdami pakeisti žemėlapį: spustelėkite ant žalios mygtukų su juodo kryžiaus žemyn,; žalią mygtuką su brūkšneliu, jei norite nutolinti; arba žalių rodyklių gretimoms žemėlapius.


METAR-TAF: